Pembine, Wisconsin
Current Conditions -  °F | °C
As of 1:54 AM on Thursday 23 Oct 2014 (Local Time) from KIMT Reporting Station
Haze Haze  
Wind Chill: 34°   Ceiling: 400
Heat Index: 39°   Visibility: 6mi
Dew Point: 37°   Wind: 7mph
Humidity: 93%   Direction: 170°S
Pressure: 30.18"   Gusts: NA
Location:  45.64°N, 87.99°W
Report Text: KIMT 230654Z AUTO 17006KT 6SM BR OVC004 04/03 A3018 RMK AO2 SLP229 T00390028
Loading
Personal Weather Stations






























Interactive Weather Map
Tropical Storm Tracking
New forecast layout! Learn more

10-Day Weather Forecast

Advertisements
Track Severe Weather on mobile